createdAt,value
2022-10-04T00:00:26.484Z,35.7
2022-10-04T00:01:28.277Z,35.7
2022-10-04T00:02:30.458Z,35.7
2022-10-04T00:03:32.446Z,35.7
2022-10-04T00:04:34.058Z,35.7
2022-10-04T00:05:35.595Z,35.6
2022-10-04T00:06:37.310Z,35.7
2022-10-04T00:07:39.340Z,35.7
2022-10-04T00:08:40.974Z,35.6
2022-10-04T00:09:42.569Z,35.7
2022-10-04T00:10:46.846Z,35.7
2022-10-04T00:11:48.456Z,35.7
2022-10-04T00:12:50.123Z,35.7
2022-10-04T00:13:51.768Z,35.7
2022-10-04T00:14:53.436Z,35.7
2022-10-04T00:15:55.291Z,35.7
2022-10-04T00:16:57.251Z,35.7
2022-10-04T00:17:58.909Z,35.7
2022-10-04T00:19:00.479Z,35.6
2022-10-04T00:20:02.144Z,35.7
2022-10-04T00:21:03.788Z,35.7
2022-10-04T00:22:05.508Z,35.7
2022-10-04T00:23:07.183Z,35.7
2022-10-04T00:24:08.878Z,35.7
2022-10-04T00:25:10.454Z,35.7
2022-10-04T00:26:12.120Z,35.7
2022-10-04T00:27:13.869Z,35.7
2022-10-04T00:28:15.661Z,35.7
2022-10-04T00:29:17.506Z,35.7
2022-10-04T00:30:19.142Z,35.7
2022-10-04T00:31:21.119Z,35.7
2022-10-04T00:32:23.114Z,35.6
2022-10-04T00:33:24.759Z,35.6
2022-10-04T00:34:30.429Z,35.6
2022-10-04T00:35:32.043Z,35.6
2022-10-04T00:36:33.689Z,35.6
2022-10-04T00:37:35.225Z,35.6
2022-10-04T00:38:36.749Z,35.7
2022-10-04T00:39:38.420Z,35.6
2022-10-04T00:40:40.009Z,35.6
2022-10-04T00:41:42.201Z,35.6
2022-10-04T00:42:44.732Z,35.6
2022-10-04T00:43:46.433Z,35.7
2022-10-04T00:44:48.185Z,35.7
2022-10-04T00:45:49.989Z,35.6
2022-10-04T00:46:52.088Z,35.6
2022-10-04T00:47:53.698Z,35.6
2022-10-04T00:48:55.245Z,35.6
2022-10-04T00:49:56.927Z,35.6
2022-10-04T00:50:58.567Z,35.7
2022-10-04T00:52:00.155Z,35.6
2022-10-04T00:53:01.959Z,35.7
2022-10-04T00:54:03.482Z,35.6
2022-10-04T00:55:05.026Z,35.7
2022-10-04T00:56:06.689Z,35.6
2022-10-04T00:57:08.335Z,35.6
2022-10-04T00:58:09.963Z,35.6
2022-10-04T00:59:11.584Z,35.6
2022-10-04T01:00:13.271Z,35.6
2022-10-04T01:01:15.173Z,35.6
2022-10-04T01:02:17.434Z,35.6
2022-10-04T01:03:19.349Z,35.6
2022-10-04T01:04:20.879Z,35.6
2022-10-04T01:05:22.521Z,35.6
2022-10-04T01:06:24.065Z,35.6
2022-10-04T01:07:25.689Z,35.6
2022-10-04T01:08:27.235Z,35.5
2022-10-04T01:09:28.894Z,35.6
2022-10-04T01:10:30.547Z,35.6
2022-10-04T01:11:32.083Z,35.6
2022-10-04T01:12:33.620Z,35.6
2022-10-04T01:13:35.425Z,35.6
2022-10-04T01:14:37.122Z,35.6
2022-10-04T01:15:38.813Z,35.6
2022-10-04T01:16:40.867Z,35.6
2022-10-04T01:17:42.573Z,35.5
2022-10-04T01:18:44.318Z,35.5
2022-10-04T01:19:45.961Z,35.5
2022-10-04T01:20:47.500Z,35.5
2022-10-04T01:21:49.048Z,35.5
2022-10-04T01:22:50.643Z,35.6
2022-10-04T01:23:52.242Z,35.6
2022-10-04T01:24:53.779Z,35.6
2022-10-04T01:25:55.321Z,35.6
2022-10-04T01:26:56.969Z,35.5
2022-10-04T01:27:58.622Z,35.5
2022-10-04T01:29:00.448Z,35.6
2022-10-04T01:30:01.996Z,35.6
2022-10-04T01:31:03.902Z,35.5
2022-10-04T01:32:06.042Z,35.6
2022-10-04T01:33:07.759Z,35.6
2022-10-04T01:34:09.607Z,35.6
2022-10-04T01:35:11.150Z,35.6
2022-10-04T01:36:12.802Z,35.5
2022-10-04T01:37:14.406Z,35.6
2022-10-04T01:38:15.944Z,35.6
2022-10-04T01:39:17.530Z,35.5
2022-10-04T01:40:19.421Z,35.5
2022-10-04T01:41:21.034Z,35.5
2022-10-04T01:42:22.629Z,35.5
2022-10-04T01:43:24.317Z,35.5
2022-10-04T01:44:25.857Z,35.5
2022-10-04T01:45:27.467Z,35.5
2022-10-04T01:46:29.406Z,35.5
2022-10-04T01:47:31.421Z,35.5
2022-10-04T01:48:33.122Z,35.5
2022-10-04T01:49:34.839Z,35.5
2022-10-04T01:50:36.453Z,35.5
2022-10-04T01:51:38.189Z,35.5
2022-10-04T01:52:39.836Z,35.5
2022-10-04T01:53:41.480Z,35.5
2022-10-04T01:54:43.128Z,35.5
2022-10-04T01:55:44.759Z,35.6
2022-10-04T01:56:46.469Z,35.6
2022-10-04T01:57:48.008Z,35.6
2022-10-04T01:58:49.710Z,35.5
2022-10-04T01:59:51.517Z,35.5
2022-10-04T02:00:53.323Z,35.5
2022-10-04T02:01:57.863Z,35.5
2022-10-04T02:02:59.422Z,35.5
2022-10-04T02:04:01.211Z,35.5
2022-10-04T02:05:03.003Z,35.5
2022-10-04T02:06:04.852Z,35.5
2022-10-04T02:07:06.457Z,35.5
2022-10-04T02:08:08.003Z,35.5
2022-10-04T02:09:09.650Z,35.5
2022-10-04T02:10:11.190Z,35.5
2022-10-04T02:11:12.741Z,35.5
2022-10-04T02:12:14.353Z,35.5
2022-10-04T02:13:15.916Z,35.5
2022-10-04T02:14:17.562Z,35.5
2022-10-04T02:15:19.190Z,35.5
2022-10-04T02:16:21.134Z,35.5
2022-10-04T02:17:23.049Z,35.5
2022-10-04T02:18:24.648Z,35.4
2022-10-04T02:19:26.710Z,35.5
2022-10-04T02:20:28.313Z,35.5
2022-10-04T02:21:29.958Z,35.5
2022-10-04T02:22:31.502Z,35.5
2022-10-04T02:23:33.056Z,35.5
2022-10-04T02:24:34.731Z,35.5
2022-10-04T02:25:36.313Z,35.4
2022-10-04T02:26:37.941Z,35.4
2022-10-04T02:27:39.807Z,35.5
2022-10-04T02:28:41.350Z,35.4
2022-10-04T02:29:43.064Z,35.4
2022-10-04T02:30:44.746Z,35.4
2022-10-04T02:31:46.825Z,35.4
2022-10-04T02:32:48.627Z,35.4
2022-10-04T02:33:50.383Z,35.4
2022-10-04T02:34:52.308Z,35.4
2022-10-04T02:35:54.068Z,35.5
2022-10-04T02:36:55.704Z,35.4
2022-10-04T02:37:57.245Z,35.4
2022-10-04T02:38:58.786Z,35.4
2022-10-04T02:40:00.638Z,35.4
2022-10-04T02:41:02.328Z,35.4
2022-10-04T02:42:03.999Z,35.5
2022-10-04T02:43:05.612Z,35.5
2022-10-04T02:44:07.181Z,35.4
2022-10-04T02:45:08.755Z,35.4
2022-10-04T02:46:10.655Z,35.4
2022-10-04T02:47:12.661Z,35.5
2022-10-04T02:48:14.312Z,35.4
2022-10-04T02:49:15.978Z,35.5
2022-10-04T02:50:17.699Z,35.5
2022-10-04T02:51:19.471Z,35.4
2022-10-04T02:52:21.024Z,35.4
2022-10-04T02:53:22.743Z,35.4
2022-10-04T02:54:24.374Z,35.4
2022-10-04T02:55:26.129Z,35.4
2022-10-04T02:56:27.681Z,35.4
2022-10-04T02:57:29.324Z,35.4
2022-10-04T02:58:30.981Z,35.4
2022-10-04T02:59:35.779Z,35.4
2022-10-04T03:00:37.573Z,35.4
2022-10-04T03:01:39.655Z,35.4
2022-10-04T03:02:42.281Z,35.4
2022-10-04T03:03:44.046Z,35.4
2022-10-04T03:04:45.607Z,35.4
2022-10-04T03:05:47.293Z,35.4
2022-10-04T03:06:48.908Z,35.4
2022-10-04T03:07:50.687Z,35.4
2022-10-04T03:08:52.235Z,35.4
2022-10-04T03:09:53.815Z,35.4
2022-10-04T03:10:55.457Z,35.4
2022-10-04T03:11:57.063Z,35.4
2022-10-04T03:12:58.810Z,35.4
2022-10-04T03:14:00.455Z,35.4
2022-10-04T03:15:02.073Z,35.4
2022-10-04T03:16:03.890Z,35.4
2022-10-04T03:17:05.860Z,35.4
2022-10-04T03:18:07.446Z,35.4
2022-10-04T03:19:09.101Z,35.5
2022-10-04T03:20:10.742Z,35.4
2022-10-04T03:21:12.651Z,35.4
2022-10-04T03:22:14.457Z,35.4
2022-10-04T03:23:18.971Z,35.3
2022-10-04T03:24:20.500Z,35.4
2022-10-04T03:25:22.251Z,35.3
2022-10-04T03:26:23.990Z,35.3
2022-10-04T03:27:25.734Z,35.3
2022-10-04T03:28:27.418Z,35.3
2022-10-04T03:29:29.579Z,35.3
2022-10-04T03:30:31.178Z,35.3
2022-10-04T03:31:32.959Z,35.3
2022-10-04T03:32:34.826Z,35.3
2022-10-04T03:33:36.374Z,35.2
2022-10-04T03:34:38.117Z,35.1
2022-10-04T03:35:39.675Z,35
2022-10-04T03:36:41.460Z,35.1
2022-10-04T03:37:43.153Z,35.4
2022-10-04T03:38:44.672Z,35.3
2022-10-04T03:39:46.252Z,35.2
2022-10-04T03:40:47.839Z,35.2
2022-10-04T03:41:49.395Z,35.3
2022-10-04T03:42:50.945Z,35.3
2022-10-04T03:43:52.486Z,35.1
2022-10-04T03:44:54.039Z,35
2022-10-04T03:45:56.089Z,35.4
2022-10-04T03:46:58.493Z,35.3
2022-10-04T03:48:00.168Z,35.2
2022-10-04T03:49:01.740Z,35.2
2022-10-04T03:50:03.271Z,35.2
2022-10-04T03:51:05.186Z,35.2
2022-10-04T03:52:07.067Z,35.1
2022-10-04T03:53:08.890Z,35.1
2022-10-04T03:54:10.450Z,35.1
2022-10-04T03:55:12.101Z,35
2022-10-04T03:56:13.662Z,35.1
2022-10-04T03:57:15.327Z,34.9
2022-10-04T03:58:16.895Z,35.1
2022-10-04T03:59:18.578Z,35
2022-10-04T04:00:22.859Z,35
2022-10-04T04:01:24.584Z,35
2022-10-04T04:02:26.632Z,35
2022-10-04T04:03:28.680Z,34.9
2022-10-04T04:04:30.261Z,35
2022-10-04T04:05:31.927Z,35
2022-10-04T04:06:33.547Z,34.9
2022-10-04T04:07:35.287Z,35.1
2022-10-04T04:08:37.072Z,34.9
2022-10-04T04:09:38.653Z,34.8
2022-10-04T04:10:40.259Z,34.9
2022-10-04T04:11:42.467Z,34.8
2022-10-04T04:12:45.390Z,34.8
2022-10-04T04:13:46.977Z,34.9
2022-10-04T04:14:48.622Z,34.9
2022-10-04T04:15:50.366Z,34.8
2022-10-04T04:16:52.396Z,34.8
2022-10-04T04:17:54.129Z,34.7
2022-10-04T04:18:55.874Z,34.7
2022-10-04T04:19:57.485Z,34.7
2022-10-04T04:20:59.107Z,34.5
2022-10-04T04:22:00.880Z,34.6
2022-10-04T04:23:02.557Z,34.5
2022-10-04T04:24:04.407Z,34.4
2022-10-04T04:25:06.032Z,34.4
2022-10-04T04:26:07.570Z,34.3
2022-10-04T04:27:09.141Z,34.2
2022-10-04T04:28:10.944Z,34.2
2022-10-04T04:29:12.841Z,34.3
2022-10-04T04:30:14.589Z,34.3
2022-10-04T04:31:16.518Z,34.3
2022-10-04T04:32:18.432Z,34.2
2022-10-04T04:33:21.325Z,34.2
2022-10-04T04:34:22.933Z,34.3
2022-10-04T04:35:24.556Z,34.2
2022-10-04T04:36:26.157Z,34.3
2022-10-04T04:37:27.815Z,34.3
2022-10-04T04:38:29.808Z,34.3
2022-10-04T04:39:31.487Z,34.3
2022-10-04T04:40:33.193Z,34.2
2022-10-04T04:41:34.733Z,34
2022-10-04T04:42:36.340Z,34
2022-10-04T04:43:38.023Z,34.1
2022-10-04T04:44:39.594Z,34.2
2022-10-04T04:45:41.241Z,34.1
2022-10-04T04:46:43.521Z,34.1
2022-10-04T04:47:45.565Z,34.1
2022-10-04T04:48:47.108Z,34
2022-10-04T04:49:48.694Z,34.1
2022-10-04T04:50:50.365Z,34
2022-10-04T04:51:52.004Z,34
2022-10-04T04:52:53.561Z,33.9
2022-10-04T04:53:55.297Z,33.9
2022-10-04T04:54:57.042Z,33.8
2022-10-04T04:56:10.136Z,33.8
2022-10-04T04:57:19.398Z,33.8
2022-10-04T04:58:21.100Z,33.7
2022-10-04T04:59:23.289Z,33.8
2022-10-04T05:00:28.099Z,33.7
2022-10-04T05:01:29.871Z,33.7
2022-10-04T05:02:31.856Z,33.7
2022-10-04T05:03:33.958Z,33.6
2022-10-04T05:04:38.650Z,33.6
2022-10-04T05:05:40.162Z,33.6
2022-10-04T05:06:41.748Z,33.7
2022-10-04T05:07:43.372Z,33.5
2022-10-04T05:08:45.181Z,33.5
2022-10-04T05:09:47.005Z,33.5
2022-10-04T05:10:48.649Z,33.5
2022-10-04T05:11:50.214Z,33.4
2022-10-04T05:12:51.758Z,33.4
2022-10-04T05:13:53.344Z,33.6
2022-10-04T05:14:55.032Z,33.9
2022-10-04T05:15:56.679Z,33.9
2022-10-04T05:16:58.338Z,33.7
2022-10-04T05:18:00.402Z,33.5
2022-10-04T05:19:01.994Z,33.6
2022-10-04T05:20:04.236Z,33.5
2022-10-04T05:21:06.064Z,33.3
2022-10-04T05:22:07.793Z,33.2
2022-10-04T05:23:09.459Z,33.2
2022-10-04T05:24:11.298Z,33.1
2022-10-04T05:25:13.536Z,33
2022-10-04T05:26:15.233Z,33
2022-10-04T05:27:16.856Z,32.4
2022-10-04T05:28:18.704Z,32.4
2022-10-04T05:29:20.784Z,32.6
2022-10-04T05:30:22.439Z,32.5
2022-10-04T05:31:24.245Z,32.3
2022-10-04T05:32:26.165Z,32.4
2022-10-04T05:33:33.920Z,32.4
2022-10-04T05:34:35.708Z,32.2
2022-10-04T05:35:37.252Z,32.3
2022-10-04T05:36:38.871Z,32.1
2022-10-04T05:37:40.402Z,31.9
2022-10-04T05:38:41.979Z,32
2022-10-04T05:39:43.643Z,31.7
2022-10-04T05:40:45.371Z,31.9
2022-10-04T05:41:47.819Z,31.7
2022-10-04T05:42:49.464Z,31.6
2022-10-04T05:43:50.998Z,31.6
2022-10-04T05:44:52.575Z,31.5
2022-10-04T05:45:54.447Z,31.5
2022-10-04T05:46:59.088Z,31.7
2022-10-04T05:48:00.655Z,31.6
2022-10-04T05:49:02.313Z,31.5
2022-10-04T05:50:03.935Z,31.4
2022-10-04T05:51:05.507Z,31.4
2022-10-04T05:52:07.157Z,31.4
2022-10-04T05:53:08.798Z,31.5
2022-10-04T05:54:10.424Z,31.4
2022-10-04T05:55:12.119Z,31
2022-10-04T05:56:13.804Z,31
2022-10-04T05:57:15.445Z,31
2022-10-04T05:58:16.988Z,30.9
2022-10-04T05:59:18.708Z,31
2022-10-04T06:00:20.419Z,31.1
2022-10-04T06:01:22.192Z,30.6
2022-10-04T06:02:24.480Z,30.7
2022-10-04T06:03:26.320Z,30.7
2022-10-04T06:04:27.885Z,30.7
2022-10-04T06:05:29.640Z,30.8
2022-10-04T06:06:31.178Z,30.7
2022-10-04T06:07:32.857Z,30.7
2022-10-04T06:08:34.386Z,30.7
2022-10-04T06:09:36.151Z,30.8
2022-10-04T06:10:37.828Z,30.8
2022-10-04T06:11:39.538Z,30.7
2022-10-04T06:12:44.809Z,30.8
2022-10-04T06:13:46.390Z,30.9
2022-10-04T06:14:48.057Z,30.9
2022-10-04T06:15:49.605Z,31
2022-10-04T06:16:51.392Z,31
2022-10-04T06:17:53.271Z,31.1
2022-10-04T06:18:54.945Z,31.1
2022-10-04T06:19:56.470Z,31.2
2022-10-04T06:20:58.025Z,31.2
2022-10-04T06:21:59.677Z,31.2
2022-10-04T06:23:01.235Z,31.4
2022-10-04T06:24:02.982Z,31.5
2022-10-04T06:25:04.682Z,31.6
2022-10-04T06:26:06.255Z,31.5
2022-10-04T06:27:08.006Z,31.4
2022-10-04T06:28:09.909Z,31.4
2022-10-04T06:29:11.746Z,31.5
2022-10-04T06:30:13.353Z,31.5
2022-10-04T06:31:15.038Z,31.4
2022-10-04T06:32:16.992Z,31.5
2022-10-04T06:33:18.577Z,31.5
2022-10-04T06:34:20.452Z,31.6
2022-10-04T06:35:22.081Z,31.6
2022-10-04T06:36:23.716Z,31.7
2022-10-04T06:37:25.356Z,31.7
2022-10-04T06:38:26.865Z,31.7
2022-10-04T06:39:28.432Z,31.8
2022-10-04T06:40:30.121Z,31.9
2022-10-04T06:41:31.785Z,31.9
2022-10-04T06:42:33.503Z,31.8
2022-10-04T06:43:35.148Z,31.8
2022-10-04T06:44:36.903Z,31.9
2022-10-04T06:45:38.694Z,31.9
2022-10-04T06:46:40.461Z,31.8
2022-10-04T06:47:42.152Z,31.9
2022-10-04T06:48:43.823Z,31.9
2022-10-04T06:49:45.418Z,32
2022-10-04T06:50:46.977Z,32.1
2022-10-04T06:51:48.621Z,32.1
2022-10-04T06:52:50.364Z,32.2
2022-10-04T06:53:52.099Z,32.3
2022-10-04T06:54:53.648Z,32.3
2022-10-04T06:55:55.405Z,32.3
2022-10-04T06:56:57.051Z,32.3
2022-10-04T06:57:59.112Z,32.3
2022-10-04T06:59:00.957Z,32.3
2022-10-04T07:00:02.599Z,32.2
2022-10-04T07:01:04.420Z,32.1
2022-10-04T07:02:06.436Z,32.1
2022-10-04T07:03:08.296Z,32.2
2022-10-04T07:04:09.998Z,32.1
2022-10-04T07:05:11.658Z,32.1
2022-10-04T07:06:13.704Z,32
2022-10-04T07:07:15.349Z,32
2022-10-04T07:08:16.883Z,32
2022-10-04T07:09:18.616Z,32.3
2022-10-04T07:10:20.370Z,32.2
2022-10-04T07:11:22.232Z,32.2
2022-10-04T07:12:24.043Z,32.2
2022-10-04T07:13:25.829Z,32.4
2022-10-04T07:14:27.696Z,32.3
2022-10-04T07:15:29.373Z,32.3
2022-10-04T07:16:31.252Z,32.2
2022-10-04T07:17:32.827Z,32.3
2022-10-04T07:18:34.960Z,32.4
2022-10-04T07:19:36.638Z,32.4
2022-10-04T07:20:38.219Z,32.4
2022-10-04T07:21:40.060Z,32.5
2022-10-04T07:22:43.265Z,32.5
2022-10-04T07:23:44.915Z,32.6
2022-10-04T07:24:46.712Z,32.6
2022-10-04T07:25:48.456Z,32.7
2022-10-04T07:26:50.214Z,32.7
2022-10-04T07:27:52.174Z,32.8
2022-10-04T07:28:54.108Z,32.8
2022-10-04T07:29:55.759Z,32.7
2022-10-04T07:30:57.537Z,32.9
2022-10-04T07:31:59.841Z,32.9
2022-10-04T07:33:01.500Z,32.9
2022-10-04T07:34:03.150Z,32.8
2022-10-04T07:35:04.779Z,32.8
2022-10-04T07:36:06.344Z,32.9
2022-10-04T07:37:07.980Z,32.8
2022-10-04T07:38:09.784Z,32.9
2022-10-04T07:39:11.452Z,32.9
2022-10-04T07:40:13.098Z,32.8
2022-10-04T07:41:14.789Z,32.8
2022-10-04T07:42:16.488Z,32.9
2022-10-04T07:43:18.264Z,33
2022-10-04T07:44:20.010Z,33.1
2022-10-04T07:45:21.858Z,32.9
2022-10-04T07:46:23.651Z,32.8
2022-10-04T07:47:25.732Z,33
2022-10-04T07:48:27.415Z,32.9
2022-10-04T07:49:28.949Z,33
2022-10-04T07:50:30.688Z,32.8
2022-10-04T07:51:32.221Z,32.9
2022-10-04T07:52:33.753Z,32.9
2022-10-04T07:53:35.454Z,32.8
2022-10-04T07:54:37.054Z,32.9
2022-10-04T07:55:41.680Z,33
2022-10-04T07:56:43.295Z,33
2022-10-04T07:57:44.850Z,33.2
2022-10-04T07:58:46.654Z,33
2022-10-04T07:59:48.470Z,33.1
2022-10-04T08:00:50.315Z,33
2022-10-04T08:01:52.191Z,33
2022-10-04T08:02:54.270Z,32.7
2022-10-04T08:03:56.374Z,32.9
2022-10-04T08:04:58.023Z,32.8
2022-10-04T08:05:59.567Z,32.8
2022-10-04T08:07:01.109Z,32.8
2022-10-04T08:08:02.650Z,33.1
2022-10-04T08:09:04.403Z,33.2
2022-10-04T08:10:06.055Z,33.3
2022-10-04T08:11:10.326Z,33.1
2022-10-04T08:12:11.997Z,33.1
2022-10-04T08:13:13.580Z,33.2
2022-10-04T08:14:15.157Z,33.3
2022-10-04T08:15:16.950Z,33.3
2022-10-04T08:16:18.726Z,33.1
2022-10-04T08:17:20.609Z,33.2
2022-10-04T08:18:22.149Z,33.3
2022-10-04T08:19:23.821Z,33.2
2022-10-04T08:20:25.467Z,33.4
2022-10-04T08:21:27.125Z,33.3
2022-10-04T08:22:28.719Z,33.3
2022-10-04T08:23:30.294Z,33.2
2022-10-04T08:24:31.946Z,33.2
2022-10-04T08:25:33.604Z,33.3
2022-10-04T08:26:35.442Z,33.3
2022-10-04T08:27:37.073Z,33.3
2022-10-04T08:28:38.729Z,33.4
2022-10-04T08:29:40.410Z,33.4
2022-10-04T08:30:42.353Z,33.4
2022-10-04T08:31:44.229Z,33.5
2022-10-04T08:32:45.743Z,33.6
2022-10-04T08:33:47.410Z,33.6
2022-10-04T08:34:48.964Z,33.6
2022-10-04T08:35:50.654Z,33.6
2022-10-04T08:36:52.299Z,33.6
2022-10-04T08:37:53.946Z,33.5
2022-10-04T08:38:55.533Z,33.3
2022-10-04T08:39:57.379Z,33.4
2022-10-04T08:40:59.289Z,33.3
2022-10-04T08:42:01.185Z,33.4
2022-10-04T08:43:02.777Z,33.4
2022-10-04T08:44:04.453Z,33.3
2022-10-04T08:45:06.304Z,33.4
2022-10-04T08:46:08.182Z,33.4
2022-10-04T08:47:10.096Z,33.4
2022-10-04T08:48:11.952Z,33.2
2022-10-04T08:49:13.621Z,33.4
2022-10-04T08:50:15.224Z,33.4
2022-10-04T08:51:16.970Z,33.5
2022-10-04T08:52:18.786Z,33.4
2022-10-04T08:53:20.337Z,33.4
2022-10-04T08:54:21.907Z,33.5
2022-10-04T08:55:23.552Z,33.6
2022-10-04T08:56:25.197Z,33.5
2022-10-04T08:57:26.990Z,33.5
2022-10-04T08:58:28.532Z,33.5
2022-10-04T08:59:30.108Z,33.4
2022-10-04T09:00:31.678Z,33.3
2022-10-04T09:01:33.778Z,33.3
2022-10-04T09:02:35.825Z,33.2
2022-10-04T09:03:37.950Z,33.2
2022-10-04T09:04:39.491Z,33.3
2022-10-04T09:05:41.019Z,33.2
2022-10-04T09:06:43.090Z,33.3
2022-10-04T09:07:45.860Z,33.3
2022-10-04T09:08:47.510Z,33.3
2022-10-04T09:09:49.144Z,33.5
2022-10-04T09:10:50.674Z,33.4
2022-10-04T09:11:52.226Z,33.5
2022-10-04T09:12:53.889Z,33.5
2022-10-04T09:13:55.539Z,33.3
2022-10-04T09:14:57.378Z,33.3
2022-10-04T09:15:59.208Z,33.3
2022-10-04T09:17:01.177Z,33.3
2022-10-04T09:18:02.918Z,33.2
2022-10-04T09:19:04.769Z,33.3
2022-10-04T09:20:38.549Z,33
2022-10-04T09:21:41.666Z,33.3
2022-10-04T09:22:43.302Z,33.2
2022-10-04T09:23:44.880Z,33.3
2022-10-04T09:24:46.698Z,33.2
2022-10-04T09:25:48.420Z,33.1
2022-10-04T09:26:50.093Z,33.1
2022-10-04T09:27:55.757Z,33.1
2022-10-04T09:29:05.041Z,33
2022-10-04T09:30:07.203Z,32.9
2022-10-04T09:31:09.308Z,32.9
2022-10-04T09:32:11.526Z,32.8
2022-10-04T09:33:14.092Z,32.5
2022-10-04T09:34:15.646Z,32.4
2022-10-04T09:35:17.381Z,32.6
2022-10-04T09:36:19.123Z,32.7
2022-10-04T09:37:20.777Z,32.7
2022-10-04T09:38:22.417Z,32.4
2022-10-04T09:39:31.211Z,32.4
2022-10-04T09:40:33.180Z,32.1
2022-10-04T09:41:34.831Z,32.3
2022-10-04T09:42:36.386Z,32.4
2022-10-04T09:43:38.125Z,32.2
2022-10-04T09:44:39.688Z,32.1
2022-10-04T09:45:41.512Z,32.2
2022-10-04T09:46:44.375Z,32.3
2022-10-04T09:47:47.670Z,32.3
2022-10-04T09:48:49.267Z,32.1
2022-10-04T09:49:50.861Z,32.3
2022-10-04T09:50:52.616Z,32.4
2022-10-04T09:51:54.168Z,32.1
2022-10-04T09:52:55.757Z,31.9
2022-10-04T09:53:57.441Z,31.5
2022-10-04T09:54:59.065Z,31.9
2022-10-04T09:56:00.740Z,31.8
2022-10-04T09:57:02.367Z,31.9
2022-10-04T09:58:03.902Z,31.6
2022-10-04T09:59:05.441Z,31.9
2022-10-04T10:00:07.090Z,31.5
2022-10-04T10:01:08.791Z,31.6
2022-10-04T10:02:10.619Z,31.5
2022-10-04T10:03:16.277Z,31.5
2022-10-04T10:04:18.297Z,31.4
2022-10-04T10:05:19.933Z,31.3
2022-10-04T10:06:21.552Z,31.5
2022-10-04T10:07:23.222Z,31.3
2022-10-04T10:08:28.589Z,31.3
2022-10-04T10:09:30.198Z,31.1
2022-10-04T10:10:31.753Z,31
2022-10-04T10:11:33.458Z,31.3
2022-10-04T10:12:35.074Z,30.9
2022-10-04T10:13:36.626Z,31.1
2022-10-04T10:14:38.288Z,30.8
2022-10-04T10:15:39.997Z,30.8
2022-10-04T10:16:42.617Z,30.7
2022-10-04T10:17:45.012Z,30.9
2022-10-04T10:18:46.953Z,30.7
2022-10-04T10:19:48.563Z,30.8
2022-10-04T10:20:50.118Z,30.8
2022-10-04T10:21:51.660Z,30.7
2022-10-04T10:22:53.248Z,30.6
2022-10-04T10:23:54.895Z,30.5
2022-10-04T10:24:58.780Z,30.3
2022-10-04T10:26:00.351Z,30.4
2022-10-04T10:27:01.956Z,30.5
2022-10-04T10:28:03.819Z,30.7
2022-10-04T10:29:05.655Z,30.8
2022-10-04T10:30:07.299Z,30.6
2022-10-04T10:31:09.210Z,30.6
2022-10-04T10:32:11.205Z,30.5
2022-10-04T10:33:12.978Z,31
2022-10-04T10:34:14.821Z,30.3
2022-10-04T10:35:16.578Z,30.6
2022-10-04T10:36:18.301Z,30.6
2022-10-04T10:37:19.871Z,30.3
2022-10-04T10:38:21.455Z,30.5
2022-10-04T10:39:23.049Z,30.5
2022-10-04T10:40:24.675Z,30.2
2022-10-04T10:41:26.304Z,30.2
2022-10-04T10:42:28.070Z,30.2
2022-10-04T10:43:29.595Z,30.3
2022-10-04T10:44:31.253Z,30
2022-10-04T10:45:32.899Z,30.5
2022-10-04T10:46:34.759Z,30.3
2022-10-04T10:47:36.637Z,30.6
2022-10-04T10:48:38.373Z,30.5
2022-10-04T10:49:42.959Z,30.4
2022-10-04T10:50:44.607Z,30.1
2022-10-04T10:51:46.256Z,30.2
2022-10-04T10:52:47.892Z,30.2
2022-10-04T10:53:49.510Z,30.3
2022-10-04T10:54:51.130Z,30
2022-10-04T10:55:52.681Z,30.2
2022-10-04T10:56:54.374Z,30.2
2022-10-04T10:57:56.018Z,30.1
2022-10-04T10:58:57.654Z,30.1
2022-10-04T10:59:59.316Z,30.3
2022-10-04T11:01:00.879Z,30.2
2022-10-04T11:02:02.834Z,30.2
2022-10-04T11:03:15.183Z,30.2
2022-10-04T11:04:26.958Z,29.9
2022-10-04T11:05:28.802Z,30.1
2022-10-04T11:06:30.707Z,30.3
2022-10-04T11:07:32.335Z,30.2
2022-10-04T11:08:33.868Z,30.2
2022-10-04T11:09:35.422Z,30.1
2022-10-04T11:10:37.076Z,30.1
2022-10-04T11:11:38.784Z,30.2
2022-10-04T11:12:40.425Z,30
2022-10-04T11:13:41.958Z,29.9
2022-10-04T11:14:43.608Z,29.9
2022-10-04T11:15:45.451Z,30.1
2022-10-04T11:16:48.123Z,30.2
2022-10-04T11:17:50.161Z,30.2
2022-10-04T11:18:51.745Z,30.1
2022-10-04T11:19:53.646Z,30
2022-10-04T11:20:55.478Z,30.2
2022-10-04T11:21:57.201Z,30.3
2022-10-04T11:22:58.873Z,30.2
2022-10-04T11:24:00.495Z,30.1
2022-10-04T11:25:02.146Z,30
2022-10-04T11:26:03.828Z,29.8
2022-10-04T11:27:05.538Z,29.9
2022-10-04T11:28:07.419Z,30.3
2022-10-04T11:29:09.390Z,30.3
2022-10-04T11:30:10.988Z,30.3
2022-10-04T11:31:12.815Z,30.3
2022-10-04T11:32:14.786Z,30.1
2022-10-04T11:33:16.637Z,30.1
2022-10-04T11:34:18.222Z,29.9
2022-10-04T11:35:19.885Z,30.1
2022-10-04T11:36:21.520Z,29.9
2022-10-04T11:37:23.117Z,30.1
2022-10-04T11:38:24.875Z,29.7
2022-10-04T11:39:26.568Z,29.8
2022-10-04T11:40:28.117Z,30
2022-10-04T11:41:29.898Z,30.1
2022-10-04T11:42:31.518Z,30
2022-10-04T11:43:33.068Z,30.1
2022-10-04T11:44:34.779Z,30
2022-10-04T11:45:36.396Z,29.9
2022-10-04T11:46:38.056Z,29.9
2022-10-04T11:47:39.985Z,30.1
2022-10-04T11:48:41.828Z,30.4
2022-10-04T11:49:43.375Z,30.1
2022-10-04T11:50:45.139Z,30.1
2022-10-04T11:51:46.768Z,30.3
2022-10-04T11:52:48.447Z,30.1
2022-10-04T11:53:49.994Z,30.2
2022-10-04T11:54:51.530Z,30.1
2022-10-04T11:55:53.115Z,30.1
2022-10-04T11:56:54.666Z,30.1
2022-10-04T11:57:56.432Z,30.1
2022-10-04T11:58:57.988Z,30
2022-10-04T11:59:59.715Z,30.1
2022-10-04T12:01:01.465Z,30
2022-10-04T12:02:03.076Z,30.1
2022-10-04T12:03:07.795Z,29.9
2022-10-04T12:04:09.970Z,30.1
2022-10-04T12:05:12.138Z,29.8
2022-10-04T12:06:13.864Z,29.9
2022-10-04T12:07:15.886Z,29.4
2022-10-04T12:08:17.613Z,29.7
2022-10-04T12:09:19.198Z,29.9
2022-10-04T12:10:20.782Z,29.8
2022-10-04T12:11:22.534Z,29.8
2022-10-04T12:12:24.185Z,29.9
2022-10-04T12:13:28.901Z,29.9
2022-10-04T12:14:30.499Z,29.9
2022-10-04T12:15:32.393Z,29.7
2022-10-04T12:16:34.274Z,29.9
2022-10-04T12:17:36.250Z,29.9
2022-10-04T12:18:37.762Z,30.1
2022-10-04T12:19:39.457Z,29.9
2022-10-04T12:20:41.089Z,29.9
2022-10-04T12:21:42.638Z,29.7
2022-10-04T12:22:44.376Z,29.6
2022-10-04T12:23:46.056Z,29.8
2022-10-04T12:24:47.709Z,29.6
2022-10-04T12:25:49.443Z,29.9
2022-10-04T12:26:51.100Z,29.8
2022-10-04T12:27:52.968Z,29.8
2022-10-04T12:28:54.792Z,29.9
2022-10-04T12:29:56.302Z,29.9
2022-10-04T12:30:57.978Z,29.8
2022-10-04T12:31:59.747Z,29.6
2022-10-04T12:33:01.646Z,29.8
2022-10-04T12:34:03.720Z,29.7
2022-10-04T12:35:05.604Z,29.7
2022-10-04T12:36:07.439Z,29.8
2022-10-04T12:37:09.012Z,29.6
2022-10-04T12:38:10.830Z,29.7
2022-10-04T12:39:12.683Z,29.6
2022-10-04T12:40:14.326Z,29.5
2022-10-04T12:41:18.934Z,29.8
2022-10-04T12:42:20.541Z,29.7
2022-10-04T12:43:23.304Z,29.8
2022-10-04T12:44:26.196Z,29.6
2022-10-04T12:45:27.896Z,29.7
2022-10-04T12:46:29.733Z,29.8
2022-10-04T12:47:31.379Z,29.7
2022-10-04T12:48:33.162Z,29.8
2022-10-04T12:49:34.744Z,29.8
2022-10-04T12:50:36.414Z,29.9
2022-10-04T12:51:38.017Z,29.8
2022-10-04T12:52:39.736Z,29.9
2022-10-04T12:53:41.548Z,29.8
2022-10-04T12:54:43.292Z,29.9
2022-10-04T12:55:44.911Z,29.8
2022-10-04T12:56:47.733Z,29.8
2022-10-04T12:57:50.372Z,29.7
2022-10-04T12:58:51.998Z,29.6
2022-10-04T12:59:53.672Z,29.8
2022-10-04T13:01:02.178Z,29.7
2022-10-04T13:02:04.261Z,29.7
2022-10-04T13:03:06.303Z,29.7
2022-10-04T13:04:07.869Z,29.7
2022-10-04T13:05:09.600Z,29.8
2022-10-04T13:06:11.384Z,29.9
2022-10-04T13:07:13.151Z,29.9
2022-10-04T13:08:14.739Z,29.9
2022-10-04T13:09:16.475Z,29.9
2022-10-04T13:10:26.283Z,30
2022-10-04T13:11:28.464Z,29.9
2022-10-04T13:12:30.121Z,30
2022-10-04T13:13:31.739Z,30
2022-10-04T13:14:33.371Z,30
2022-10-04T13:17:35.028Z,30
2022-10-04T13:18:38.193Z,29.9
2022-10-04T13:19:40.494Z,29.8
2022-10-04T13:20:42.354Z,29.9
2022-10-04T13:21:45.002Z,29.9
2022-10-04T13:23:02.921Z,30
2022-10-04T13:24:04.609Z,30
2022-10-04T13:25:06.373Z,30
2022-10-04T13:26:08.126Z,30
2022-10-04T13:27:09.724Z,30.1
2022-10-04T13:28:11.441Z,30.1
2022-10-04T13:29:13.475Z,30.1
2022-10-04T13:30:15.282Z,30.1
2022-10-04T13:31:17.054Z,30.2
2022-10-04T13:32:18.912Z,30.2
2022-10-04T13:33:20.449Z,30.2
2022-10-04T13:34:22.100Z,30.3
2022-10-04T13:35:23.854Z,30.3
2022-10-04T13:36:25.539Z,30.3
2022-10-04T13:37:27.112Z,30.3
2022-10-04T13:38:28.779Z,30.3
2022-10-04T13:39:30.362Z,30.4
2022-10-04T13:40:32.348Z,30.4
2022-10-04T13:41:33.985Z,30.4
2022-10-04T13:42:35.634Z,30.5
2022-10-04T13:43:37.254Z,30.5
2022-10-04T13:44:39.031Z,30.5
2022-10-04T13:45:40.718Z,30.5
2022-10-04T13:46:42.732Z,30.5
2022-10-04T13:47:44.474Z,30.6
2022-10-04T13:48:46.126Z,30.5
2022-10-04T13:49:47.775Z,30.6
2022-10-04T13:50:49.335Z,30.6